METAR Data
IDs: Format: Raw Decoded Include TAF

Data at: 1656 UTC 18 Feb 2019

METAR for:KCSQ (Creston Muni, IA, US)
Text:KCSQ 181655Z AUTO 35006KT 10SM CLR M08/M11 A3044 RMK AO2
Temperature: -8.0°C ( 18°F)
Dewpoint:-11.0°C ( 12°F) [RH = 79%]
Pressure (altimeter):30.44 inches Hg (1030.9 mb)
Winds:from the N (350 degrees) at 7 MPH (6 knots; 3.1 m/s)
Visibility:10 or more sm (16+ km)
Ceiling:at least 12,000 feet AGL
Clouds:sky clear below 12,000 feet AGL
QC Flag:automated observation with no human augmentation